PASY METAR and TAF weather

Enter ICAO airport designator
Station Type Date Time Source
PASY METAR 2019/12/16 05:55 UTC NOAA

PASY 160555Z 06035G40KT 2SM -SN BR OVC007 00/00 A2901 RMK AO2A PK WND 06042/33 SLP828 60026 4/002 T00020000 10003 20000 56046 RVRNO PNO FZRANO $


Station Type Date Time Source
PASY Decoded METAR 2019/12/16 05:55 UTC NOAA

SHEMYA EARECKSON AS, AK, United States (PASY) 52-43N 174-07E
Dec 16, 2019 - 12:55 AM EST / 2019.12.16 0555 UTC
Wind: from the ENE (060 degrees) at 40 MPH (35 KT) gusting to 46 MPH (40 KT):0
Visibility: 2 mile(s):0
Sky conditions: overcast
Weather: light snow; mist; 2 inches of snow on ground
Temperature: 32.4 F (0.2 C)
Windchill: 15 F (-9 C):1
Dew Point: 32.0 F (0.0 C)
Relative Humidity: 98%
Pressure (altimeter): 29.01 in. Hg (982 hPa)
Pressure tendency: 0.14 inches (4.6 hPa) lower than three hours ago
ob: PASY 160555Z 06035G40KT 2SM -SN BR OVC007 00/00 A2901 RMK AO2A PK WND 06042/33 SLP828 60026 4/002 T00020000 10003 20000 56046 RVRNO PNO FZRANO
cycle: 6

Station Type Date Time Source
PASY TAF 2019/12/16 06:06 UTC NOAA

TAF PASY 160600Z 1606/1712 05030G40KT 3200 -SN BR OVC007 620076 510003 QNH2900INS
BECMG 1612/1613 03035G45KT 3200 -SN BR SCT007 BKN015 620155 520003 QNH2895INS
TEMPO 1621/1624 02040G50KT 1600 -SN BR BKN007 620076 530003
BECMG 1702/1703 33035G40KT 6000 -SN BR SCT015 BKN030 620305 510003 QNH2918INS TX04/1706Z TNM02/1620Z

Example: see airport list